sensor_id;sensor_type;location;lat;lon;timestamp;pressure;altitude;pressure_sealevel;temperature;humidity
4528;BME280;62320;51.520;6.818;2024-01-16T00:09:41;100408.63;;;1.18;100.00
4528;BME280;62320;51.520;6.818;2024-01-16T00:19:42;100412.00;;;1.17;100.00
4528;BME280;62320;51.520;6.818;2024-01-16T00:29:44;100420.41;;;1.15;100.00
4528;BME280;62320;51.520;6.818;2024-01-16T00:39:45;100419.50;;;1.13;100.00
4528;BME280;62320;51.520;6.818;2024-01-16T00:49:47;100428.75;;;1.11;100.00
4528;BME280;62320;51.520;6.818;2024-01-16T00:59:48;100440.47;;;1.06;100.00
4528;BME280;62320;51.520;6.818;2024-01-16T01:09:50;100455.63;;;1.03;100.00
4528;BME280;62320;51.520;6.818;2024-01-16T01:19:51;100457.38;;;1.04;100.00
4528;BME280;62320;51.520;6.818;2024-01-16T01:29:53;100461.59;;;1.03;100.00
4528;BME280;62320;51.520;6.818;2024-01-16T01:39:54;100464.94;;;1.02;100.00
4528;BME280;62320;51.520;6.818;2024-01-16T01:49:56;100472.56;;;1.02;100.00
4528;BME280;62320;51.520;6.818;2024-01-16T01:59:58;100485.50;;;1.07;100.00
4528;BME280;62320;51.520;6.818;2024-01-16T02:09:59;100489.75;;;1.08;100.00
4528;BME280;62320;51.520;6.818;2024-01-16T02:20:01;100478.66;;;1.06;100.00
4528;BME280;62320;51.520;6.818;2024-01-16T02:30:04;100483.00;;;1.08;100.00
4528;BME280;62320;51.520;6.818;2024-01-16T02:40:06;100467.88;;;1.13;100.00
4528;BME280;62320;51.520;6.818;2024-01-16T02:50:08;100458.44;;;1.10;100.00
4528;BME280;62320;51.520;6.818;2024-01-16T03:00:11;100473.69;;;1.09;100.00
4528;BME280;62320;51.520;6.818;2024-01-16T03:10:13;100459.19;;;1.08;100.00
4528;BME280;62320;51.520;6.818;2024-01-16T03:20:15;100464.19;;;1.05;100.00
4528;BME280;62320;51.520;6.818;2024-01-16T03:30:17;100476.16;;;1.07;100.00
4528;BME280;62320;51.520;6.818;2024-01-16T03:40:18;100469.38;;;1.08;100.00
4528;BME280;62320;51.520;6.818;2024-01-16T03:50:26;100477.94;;;1.10;100.00
4528;BME280;62320;51.520;6.818;2024-01-16T04:00:27;100466.03;;;1.09;100.00
4528;BME280;62320;51.520;6.818;2024-01-16T04:10:29;100468.66;;;1.12;100.00
4528;BME280;62320;51.520;6.818;2024-01-16T04:20:30;100468.66;;;1.12;100.00
4528;BME280;62320;51.520;6.818;2024-01-16T04:30:32;100476.41;;;1.15;100.00
4528;BME280;62320;51.520;6.818;2024-01-16T04:40:33;100467.91;;;1.14;100.00
4528;BME280;62320;51.520;6.818;2024-01-16T04:50:35;100459.47;;;1.15;100.00
4528;BME280;62320;51.520;6.818;2024-01-16T05:00:36;100452.75;;;1.17;100.00
4528;BME280;62320;51.520;6.818;2024-01-16T05:10:38;100447.53;;;1.14;100.00
4528;BME280;62320;51.520;6.818;2024-01-16T05:20:41;100449.28;;;1.15;100.00
4528;BME280;62320;51.520;6.818;2024-01-16T05:30:43;100444.91;;;1.11;100.00
4528;BME280;62320;51.520;6.818;2024-01-16T05:40:44;100445.75;;;1.12;100.00
4528;BME280;62320;51.520;6.818;2024-01-16T05:50:46;100430.44;;;1.10;100.00
4528;BME280;62320;51.520;6.818;2024-01-16T06:00:47;100428.66;;;1.08;100.00
4528;BME280;62320;51.520;6.818;2024-01-16T06:10:49;100432.09;;;1.10;100.00
4528;BME280;62320;51.520;6.818;2024-01-16T06:20:50;100429.53;;;1.08;100.00
4528;BME280;62320;51.520;6.818;2024-01-16T06:30:52;100428.75;;;1.11;100.00
4528;BME280;62320;51.520;6.818;2024-01-16T06:40:53;100432.88;;;1.07;100.00
4528;BME280;62320;51.520;6.818;2024-01-16T06:50:54;100437.41;;;1.16;100.00
4528;BME280;62320;51.520;6.818;2024-01-16T07:00:56;100444.13;;;1.14;100.00
4528;BME280;62320;51.520;6.818;2024-01-16T07:10:57;100456.69;;;1.09;100.00
4528;BME280;62320;51.520;6.818;2024-01-16T07:20:59;100465.81;;;1.03;100.00
4528;BME280;62320;51.520;6.818;2024-01-16T07:31:00;100471.50;;;0.96;100.00
4528;BME280;62320;51.520;6.818;2024-01-16T07:41:02;100475.59;;;0.91;100.00
4528;BME280;62320;51.520;6.818;2024-01-16T07:51:03;100477.00;;;0.83;100.00
4528;BME280;62320;51.520;6.818;2024-01-16T08:01:05;100476.13;;;0.82;100.00
4528;BME280;62320;51.520;6.818;2024-01-16T08:11:06;100492.09;;;0.77;100.00
4528;BME280;62320;51.520;6.818;2024-01-16T08:21:08;100494.56;;;0.75;100.00
4528;BME280;62320;51.520;6.818;2024-01-16T08:31:10;100482.53;;;0.71;100.00
4528;BME280;62320;51.520;6.818;2024-01-16T08:41:11;100502.09;;;0.72;100.00
4528;BME280;62320;51.520;6.818;2024-01-16T08:51:12;100504.28;;;0.87;100.00
4528;BME280;62320;51.520;6.818;2024-01-16T09:01:15;100503.28;;;0.82;100.00
4528;BME280;62320;51.520;6.818;2024-01-16T09:11:16;100514.91;;;0.75;100.00
4528;BME280;62320;51.520;6.818;2024-01-16T09:21:18;100514.00;;;0.73;100.00
4528;BME280;62320;51.520;6.818;2024-01-16T09:31:20;100508.75;;;0.68;100.00
4528;BME280;62320;51.520;6.818;2024-01-16T09:41:22;100511.53;;;0.75;100.00
4528;BME280;62320;51.520;6.818;2024-01-16T09:51:24;100503.00;;;0.74;100.00
4528;BME280;62320;51.520;6.818;2024-01-16T10:01:27;100507.28;;;0.75;100.00
4528;BME280;62320;51.520;6.818;2024-01-16T10:11:29;100498.72;;;0.73;100.00
4528;BME280;62320;51.520;6.818;2024-01-16T10:21:32;100493.88;;;0.79;100.00
4528;BME280;62320;51.520;6.818;2024-01-16T10:31:33;100482.94;;;0.82;100.00
4528;BME280;62320;51.520;6.818;2024-01-16T10:41:35;100475.53;;;0.89;100.00
4528;BME280;62320;51.520;6.818;2024-01-16T10:51:38;100482.59;;;0.98;100.00
4528;BME280;62320;51.520;6.818;2024-01-16T11:01:48;100467.66;;;1.07;100.00
4528;BME280;62320;51.520;6.818;2024-01-16T11:11:53;100454.75;;;1.02;100.00
4528;BME280;62320;51.520;6.818;2024-01-16T11:21:56;100456.34;;;0.99;100.00
4528;BME280;62320;51.520;6.818;2024-01-16T11:31:58;100475.25;;;1.05;100.00
4528;BME280;62320;51.520;6.818;2024-01-16T11:42:27;100449.94;;;1.10;100.00
4528;BME280;62320;51.520;6.818;2024-01-16T11:52:42;100433.25;;;1.18;100.00
4528;BME280;62320;51.520;6.818;2024-01-16T12:12:46;100423.38;;;1.28;100.00
4528;BME280;62320;51.520;6.818;2024-01-16T12:22:55;100401.47;;;1.33;100.00
4528;BME280;62320;51.520;6.818;2024-01-16T12:33:08;100375.31;;;1.39;100.00
4528;BME280;62320;51.520;6.818;2024-01-16T12:43:12;100368.66;;;1.42;100.00
4528;BME280;62320;51.520;6.818;2024-01-16T12:53:13;100362.22;;;1.55;100.00
4528;BME280;62320;51.520;6.818;2024-01-16T13:03:19;100355.41;;;1.54;100.00
4528;BME280;62320;51.520;6.818;2024-01-16T13:13:21;100351.38;;;1.62;100.00
4528;BME280;62320;51.520;6.818;2024-01-16T13:23:24;100337.00;;;1.64;100.00
4528;BME280;62320;51.520;6.818;2024-01-16T13:33:26;100344.88;;;1.72;100.00
4528;BME280;62320;51.520;6.818;2024-01-16T13:43:31;100339.19;;;1.82;100.00
4528;BME280;62320;51.520;6.818;2024-01-16T13:53:33;100319.91;;;1.90;100.00
4528;BME280;62320;51.520;6.818;2024-01-16T14:03:36;100300.31;;;1.89;100.00
4528;BME280;62320;51.520;6.818;2024-01-16T14:13:37;100321.59;;;1.91;100.00
4528;BME280;62320;51.520;6.818;2024-01-16T14:23:38;100322.41;;;1.88;100.00
4528;BME280;62320;51.520;6.818;2024-01-16T14:33:40;100315.59;;;1.89;100.00
4528;BME280;62320;51.520;6.818;2024-01-16T14:43:42;100305.22;;;1.81;100.00
4528;BME280;62320;51.520;6.818;2024-01-16T14:53:43;100297.50;;;1.80;100.00
4528;BME280;62320;51.520;6.818;2024-01-16T15:03:45;100288.91;;;1.75;100.00
4528;BME280;62320;51.520;6.818;2024-01-16T15:13:46;100298.09;;;1.70;100.00
4528;BME280;62320;51.520;6.818;2024-01-16T15:23:49;100273.25;;;1.61;100.00
4528;BME280;62320;51.520;6.818;2024-01-16T15:33:51;100272.03;;;1.50;100.00
4528;BME280;62320;51.520;6.818;2024-01-16T15:43:53;100286.91;;;1.35;100.00
4528;BME280;62320;51.520;6.818;2024-01-16T15:53:54;100299.50;;;1.30;100.00
4528;BME280;62320;51.520;6.818;2024-01-16T16:03:56;100300.78;;;1.16;100.00
4528;BME280;62320;51.520;6.818;2024-01-16T16:13:57;100303.19;;;1.12;100.00
4528;BME280;62320;51.520;6.818;2024-01-16T16:23:59;100317.81;;;0.91;100.00
4528;BME280;62320;51.520;6.818;2024-01-16T16:34:03;100321.66;;;0.78;100.00
4528;BME280;62320;51.520;6.818;2024-01-16T16:44:05;100328.66;;;0.58;100.00
4528;BME280;62320;51.520;6.818;2024-01-16T16:54:08;100331.19;;;0.58;100.00
4528;BME280;62320;51.520;6.818;2024-01-16T17:04:10;100321.53;;;0.48;100.00
4528;BME280;62320;51.520;6.818;2024-01-16T17:14:11;100311.19;;;0.44;100.00
4528;BME280;62320;51.520;6.818;2024-01-16T17:24:14;100308.34;;;0.35;100.00
4528;BME280;62320;51.520;6.818;2024-01-16T17:34:15;100296.31;;;0.29;100.00
4528;BME280;62320;51.520;6.818;2024-01-16T17:44:18;100294.53;;;0.27;100.00
4528;BME280;62320;51.520;6.818;2024-01-16T17:54:19;100288.31;;;0.19;100.00
4528;BME280;62320;51.520;6.818;2024-01-16T18:04:21;100263.66;;;0.16;100.00
4528;BME280;62320;51.520;6.818;2024-01-16T18:14:23;100249.84;;;0.08;100.00
4528;BME280;62320;51.520;6.818;2024-01-16T18:24:28;100233.50;;;0.00;100.00
4528;BME280;62320;51.520;6.818;2024-01-16T18:34:31;100228.03;;;-0.11;100.00
4528;BME280;62320;51.520;6.818;2024-01-16T18:44:32;100214.28;;;-0.16;100.00
4528;BME280;62320;51.520;6.818;2024-01-16T18:54:34;100209.81;;;-0.23;100.00
4528;BME280;62320;51.520;6.818;2024-01-16T19:04:35;100206.28;;;-0.28;100.00
4528;BME280;62320;51.520;6.818;2024-01-16T19:14:39;100206.78;;;-0.38;100.00
4528;BME280;62320;51.520;6.818;2024-01-16T19:24:48;100184.50;;;-0.45;100.00
4528;BME280;62320;51.520;6.818;2024-01-16T19:34:50;100180.91;;;-0.51;100.00
4528;BME280;62320;51.520;6.818;2024-01-16T19:44:51;100176.50;;;-0.57;100.00
4528;BME280;62320;51.520;6.818;2024-01-16T19:54:53;100172.09;;;-0.61;100.00
4528;BME280;62320;51.520;6.818;2024-01-16T20:04:57;100158.19;;;-0.72;100.00
4528;BME280;62320;51.520;6.818;2024-01-16T20:14:58;100136.84;;;-0.77;100.00
4528;BME280;62320;51.520;6.818;2024-01-16T20:25:04;100137.34;;;-0.87;100.00
4528;BME280;62320;51.520;6.818;2024-01-16T20:35:07;100128.59;;;-0.95;100.00
4528;BME280;62320;51.520;6.818;2024-01-16T20:45:09;100132.53;;;-1.03;100.00
4528;BME280;62320;51.520;6.818;2024-01-16T20:55:11;100125.47;;;-1.12;100.00
4528;BME280;62320;51.520;6.818;2024-01-16T21:05:12;100107.59;;;-1.15;100.00
4528;BME280;62320;51.520;6.818;2024-01-16T21:15:14;100098.78;;;-1.24;100.00
4528;BME280;62320;51.520;6.818;2024-01-16T21:25:18;100086.59;;;-1.34;100.00
4528;BME280;62320;51.520;6.818;2024-01-16T21:35:20;100082.22;;;-1.38;100.00
4528;BME280;62320;51.520;6.818;2024-01-16T21:45:22;100055.56;;;-1.51;100.00
4528;BME280;62320;51.520;6.818;2024-01-16T21:55:23;100033.34;;;-1.58;100.00
4528;BME280;62320;51.520;6.818;2024-01-16T22:05:26;100015.31;;;-1.66;100.00
4528;BME280;62320;51.520;6.818;2024-01-16T22:15:28;100010.75;;;-1.76;100.00
4528;BME280;62320;51.520;6.818;2024-01-16T22:25:29;99991.44;;;-1.72;100.00
4528;BME280;62320;51.520;6.818;2024-01-16T22:35:31;99976.63;;;-1.84;100.00
4528;BME280;62320;51.520;6.818;2024-01-16T22:45:32;99973.09;;;-1.89;100.00
4528;BME280;62320;51.520;6.818;2024-01-16T22:55:34;99964.13;;;-2.03;100.00
4528;BME280;62320;51.520;6.818;2024-01-16T23:05:36;99940.84;;;-2.17;100.00
4528;BME280;62320;51.520;6.818;2024-01-16T23:15:37;99926.03;;;-2.28;100.00
4528;BME280;62320;51.520;6.818;2024-01-16T23:25:38;99924.31;;;-2.29;100.00
4528;BME280;62320;51.520;6.818;2024-01-16T23:35:40;99926.03;;;-2.28;100.00
4528;BME280;62320;51.520;6.818;2024-01-16T23:45:45;99888.53;;;-2.38;100.00
4528;BME280;62320;51.520;6.818;2024-01-16T23:55:47;99864.09;;;-2.38;100.00
